createdAt,value
2023-01-17T00:02:27.201Z,3.15
2023-01-17T00:05:12.911Z,4.65
2023-01-17T00:07:58.477Z,3.25
2023-01-17T00:10:27.858Z,2.67
2023-01-17T00:13:03.624Z,5.22
2023-01-17T00:15:31.582Z,3.35
2023-01-17T00:17:59.305Z,5.25
2023-01-17T00:20:48.457Z,4.65
2023-01-17T00:23:37.108Z,3.33
2023-01-17T00:26:07.340Z,3.45
2023-01-17T00:28:38.808Z,4.25
2023-01-17T00:31:07.852Z,5.93
2023-01-17T00:33:35.411Z,3.70
2023-01-17T00:36:04.004Z,4.18
2023-01-17T00:38:33.715Z,3.88
2023-01-17T00:41:11.684Z,2.42
2023-01-17T00:43:57.267Z,5.70
2023-01-17T00:46:43.997Z,3.45
2023-01-17T00:49:29.649Z,3.75
2023-01-17T00:52:15.173Z,3.53
2023-01-17T00:55:00.785Z,2.88
2023-01-17T00:57:46.601Z,3.13
2023-01-17T01:00:33.009Z,5.38
2023-01-17T01:03:18.763Z,3.35
2023-01-17T01:06:04.458Z,4.53
2023-01-17T01:08:50.157Z,6.15
2023-01-17T01:11:38.397Z,3.50
2023-01-17T01:14:26.736Z,3.58
2023-01-17T01:17:12.447Z,5.60
2023-01-17T01:19:58.220Z,6.20
2023-01-17T01:22:43.953Z,3.75
2023-01-17T01:25:30.139Z,3.92
2023-01-17T01:28:28.776Z,3.65
2023-01-17T01:31:14.449Z,3.40
2023-01-17T01:33:41.821Z,3.28
2023-01-17T01:36:09.301Z,3.67
2023-01-17T01:38:37.067Z,5.03
2023-01-17T01:41:04.816Z,3.08
2023-01-17T01:43:55.870Z,3.03
2023-01-17T01:46:23.168Z,3.70
2023-01-17T01:48:58.611Z,4.82
2023-01-17T01:51:35.389Z,3.28
2023-01-17T01:54:18.396Z,3.20
2023-01-17T01:56:47.222Z,4.03
2023-01-17T01:59:17.962Z,3.60
2023-01-17T02:01:45.882Z,3.33
2023-01-17T02:04:13.957Z,2.70
2023-01-17T02:06:48.296Z,2.92
2023-01-17T02:09:18.036Z,3.05
2023-01-17T02:11:47.130Z,3.00
2023-01-17T02:14:19.468Z,3.80
2023-01-17T02:16:58.823Z,3.95
2023-01-17T02:19:38.323Z,3.42
2023-01-17T02:22:11.522Z,4.47
2023-01-17T02:25:06.461Z,4.68
2023-01-17T02:27:51.050Z,5.05
2023-01-17T02:30:24.205Z,5.60
2023-01-17T02:33:12.567Z,3.58
2023-01-17T02:36:17.355Z,4.70
2023-01-17T02:39:08.106Z,4.53
2023-01-17T02:41:39.184Z,4.90
2023-01-17T02:44:10.136Z,4.07
2023-01-17T02:46:55.396Z,4.53
2023-01-17T02:49:27.184Z,4.10
2023-01-17T02:52:24.709Z,6.82
2023-01-17T02:55:01.437Z,4.13
2023-01-17T02:57:34.456Z,6.07
2023-01-17T03:00:22.871Z,4.20
2023-01-17T03:03:27.613Z,7.50
2023-01-17T03:06:02.509Z,3.60
2023-01-17T03:08:30.746Z,4.90
2023-01-17T03:10:58.188Z,5.60
2023-01-17T03:13:25.603Z,4.78
2023-01-17T03:15:52.882Z,5.28
2023-01-17T03:18:20.207Z,4.57
2023-01-17T03:20:47.734Z,4.55
2023-01-17T03:23:14.909Z,4.93
2023-01-17T03:25:42.396Z,4.20
2023-01-17T03:28:10.665Z,5.55
2023-01-17T03:30:37.918Z,5.68
2023-01-17T03:33:05.146Z,4.90
2023-01-17T03:35:32.447Z,5.47
2023-01-17T03:37:59.664Z,6.30
2023-01-17T03:40:27.077Z,5.57
2023-01-17T03:42:54.377Z,8.82
2023-01-17T03:45:21.547Z,7.82
2023-01-17T03:47:48.772Z,5.43
2023-01-17T03:50:16.077Z,6.22
2023-01-17T03:52:43.392Z,9.00
2023-01-17T03:55:10.893Z,9.32
2023-01-17T03:57:38.161Z,5.32
2023-01-17T04:00:06.144Z,8.20
2023-01-17T04:02:34.228Z,7.75
2023-01-17T04:05:01.583Z,7.15
2023-01-17T04:07:28.797Z,8.82
2023-01-17T04:09:56.053Z,5.78
2023-01-17T04:12:23.413Z,7.07
2023-01-17T04:14:50.665Z,6.60
2023-01-17T04:17:19.892Z,5.65
2023-01-17T04:19:47.567Z,5.57
2023-01-17T04:22:15.005Z,7.07
2023-01-17T04:24:42.221Z,11.05
2023-01-17T04:27:14.433Z,8.63
2023-01-17T04:29:41.846Z,7.55
2023-01-17T04:32:09.125Z,7.20
2023-01-17T04:34:36.377Z,8.30
2023-01-17T04:37:03.684Z,8.15
2023-01-17T04:39:30.939Z,6.18
2023-01-17T04:41:58.266Z,7.28
2023-01-17T04:44:25.660Z,5.82
2023-01-17T04:46:52.939Z,6.93
2023-01-17T04:49:20.228Z,10.63
2023-01-17T04:51:47.538Z,7.15
2023-01-17T04:54:14.786Z,8.40
2023-01-17T04:56:42.103Z,8.60
2023-01-17T04:59:09.329Z,6.07
2023-01-17T05:01:36.648Z,5.90
2023-01-17T05:04:04.174Z,7.38
2023-01-17T05:06:31.379Z,8.88
2023-01-17T05:08:59.223Z,7.10
2023-01-17T05:11:26.413Z,6.28
2023-01-17T05:13:53.669Z,5.50
2023-01-17T05:16:20.918Z,7.53
2023-01-17T05:18:52.624Z,6.57
2023-01-17T05:21:21.084Z,7.53
2023-01-17T05:23:48.839Z,5.85
2023-01-17T05:26:16.252Z,8.70
2023-01-17T05:28:43.474Z,8.57
2023-01-17T05:31:11.057Z,8.05
2023-01-17T05:33:38.445Z,7.07
2023-01-17T05:36:05.968Z,6.30
2023-01-17T05:38:33.208Z,8.07
2023-01-17T05:41:01.565Z,7.63
2023-01-17T05:43:29.047Z,11.50
2023-01-17T05:45:56.386Z,8.40
2023-01-17T05:48:23.662Z,11.88
2023-01-17T05:50:52.341Z,6.40
2023-01-17T05:53:19.595Z,7.95
2023-01-17T05:55:47.830Z,9.63
2023-01-17T05:58:18.155Z,9.68
2023-01-17T06:00:45.827Z,10.40
2023-01-17T06:03:13.828Z,7.88
2023-01-17T06:05:41.537Z,9.20
2023-01-17T06:08:09.019Z,12.35
2023-01-17T06:10:36.286Z,10.93
2023-01-17T06:13:09.915Z,9.57
2023-01-17T06:15:38.120Z,6.55
2023-01-17T06:18:10.577Z,8.07
2023-01-17T06:20:38.275Z,10.63
2023-01-17T06:23:07.810Z,8.90
2023-01-17T06:25:40.723Z,9.35
2023-01-17T06:28:08.246Z,9.00
2023-01-17T06:30:35.936Z,7.90
2023-01-17T06:33:04.380Z,7.82
2023-01-17T06:35:32.419Z,8.63
2023-01-17T06:38:00.609Z,10.38
2023-01-17T06:40:29.797Z,8.57
2023-01-17T06:43:04.514Z,9.63
2023-01-17T06:45:33.858Z,8.43
2023-01-17T06:48:05.466Z,12.25
2023-01-17T06:50:34.221Z,8.57
2023-01-17T06:53:04.870Z,8.77
2023-01-17T06:55:33.971Z,10.38
2023-01-17T06:58:03.198Z,10.60
2023-01-17T07:00:40.555Z,10.13
2023-01-17T07:03:20.188Z,8.18
2023-01-17T07:05:47.971Z,10.05
2023-01-17T07:08:17.123Z,9.02
2023-01-17T07:10:46.078Z,10.93
2023-01-17T07:13:13.775Z,10.18
2023-01-17T07:15:41.185Z,8.55
2023-01-17T07:18:08.616Z,7.25
2023-01-17T07:20:35.918Z,8.75
2023-01-17T07:23:03.282Z,11.18
2023-01-17T07:25:30.538Z,10.15
2023-01-17T07:27:58.070Z,9.52
2023-01-17T07:30:25.535Z,11.02
2023-01-17T07:32:54.196Z,13.50
2023-01-17T07:35:22.882Z,10.90
2023-01-17T07:37:51.349Z,8.75
2023-01-17T07:40:20.193Z,12.40
2023-01-17T07:42:47.965Z,9.38
2023-01-17T07:45:16.729Z,10.80
2023-01-17T07:47:44.298Z,9.85
2023-01-17T07:50:13.161Z,8.70
2023-01-17T07:52:41.048Z,8.80
2023-01-17T07:55:11.928Z,8.30
2023-01-17T07:57:39.349Z,8.40
2023-01-17T08:00:07.534Z,8.68
2023-01-17T08:02:39.735Z,6.32
2023-01-17T08:05:07.307Z,8.60
2023-01-17T08:07:34.856Z,11.15
2023-01-17T08:10:02.418Z,9.07
2023-01-17T08:12:29.887Z,10.65
2023-01-17T08:14:57.276Z,9.30
2023-01-17T08:17:24.540Z,10.15
2023-01-17T08:19:53.233Z,10.27
2023-01-17T08:22:20.611Z,9.95
2023-01-17T08:24:47.844Z,8.60
2023-01-17T08:27:16.056Z,9.43
2023-01-17T08:29:47.236Z,8.80
2023-01-17T08:32:16.033Z,14.23
2023-01-17T08:34:43.424Z,9.20
2023-01-17T08:37:10.810Z,9.27
2023-01-17T08:39:38.331Z,8.27
2023-01-17T08:42:05.846Z,6.78
2023-01-17T08:44:33.436Z,8.45
2023-01-17T08:47:01.713Z,7.38
2023-01-17T08:49:29.072Z,6.40
2023-01-17T08:51:56.382Z,9.73
2023-01-17T08:54:23.801Z,8.32
2023-01-17T08:56:53.142Z,8.93
2023-01-17T08:59:20.731Z,7.00
2023-01-17T09:01:48.132Z,6.07
2023-01-17T09:04:16.054Z,6.07
2023-01-17T09:06:47.456Z,6.63
2023-01-17T09:09:16.810Z,8.23
2023-01-17T09:11:44.073Z,6.22
2023-01-17T09:14:14.706Z,8.73
2023-01-17T09:16:42.083Z,8.48
2023-01-17T09:19:09.679Z,11.32
2023-01-17T09:21:36.979Z,5.13
2023-01-17T09:24:04.478Z,8.57
2023-01-17T09:26:31.806Z,11.57
2023-01-17T09:28:59.165Z,5.35
2023-01-17T09:31:27.421Z,5.93
2023-01-17T09:33:56.531Z,5.82
2023-01-17T09:36:29.306Z,5.95
2023-01-17T09:38:58.491Z,7.45
2023-01-17T09:41:37.386Z,7.97
2023-01-17T09:44:46.872Z,7.25
2023-01-17T09:47:35.036Z,7.18
2023-01-17T09:50:32.076Z,9.20
2023-01-17T09:53:03.746Z,7.50
2023-01-17T09:55:58.292Z,5.70
2023-01-17T09:58:57.676Z,7.63
2023-01-17T10:02:02.237Z,6.93
2023-01-17T10:04:57.451Z,8.25
2023-01-17T10:07:49.221Z,7.57
2023-01-17T10:10:25.655Z,8.05
2023-01-17T10:13:14.458Z,8.80
2023-01-17T10:15:50.258Z,7.25
2023-01-17T10:18:33.505Z,5.28
2023-01-17T10:21:06.437Z,6.90
2023-01-17T10:23:51.916Z,6.03
2023-01-17T10:26:24.286Z,7.78
2023-01-17T10:28:55.397Z,5.10
2023-01-17T10:31:25.177Z,5.23
2023-01-17T10:33:53.031Z,5.13
2023-01-17T10:36:26.060Z,7.80
2023-01-17T10:38:59.337Z,5.88
2023-01-17T10:41:42.201Z,5.85
2023-01-17T10:44:23.039Z,7.47
2023-01-17T10:46:59.938Z,7.88
2023-01-17T10:49:28.436Z,5.97
2023-01-17T10:52:26.900Z,9.32
2023-01-17T10:55:04.148Z,7.57
2023-01-17T10:57:46.301Z,6.43
2023-01-17T11:02:46.171Z,7.78
2023-01-17T11:05:31.912Z,8.10
2023-01-17T11:08:03.772Z,6.70
2023-01-17T11:10:51.144Z,5.32
2023-01-17T11:13:24.818Z,9.05
2023-01-17T11:15:57.778Z,6.13
2023-01-17T11:18:37.778Z,6.72
2023-01-17T11:21:26.062Z,5.53
2023-01-17T11:23:58.528Z,8.30
2023-01-17T11:26:36.656Z,7.35
2023-01-17T11:29:31.028Z,5.82
2023-01-17T11:32:16.608Z,9.98
2023-01-17T11:34:43.845Z,5.97
2023-01-17T11:37:22.832Z,5.47
2023-01-17T11:39:50.088Z,6.30
2023-01-17T11:42:36.111Z,7.45
2023-01-17T11:45:26.383Z,6.50
2023-01-17T11:48:05.427Z,6.57
2023-01-17T11:50:32.679Z,5.18
2023-01-17T11:53:27.659Z,5.35
2023-01-17T11:56:11.375Z,6.65
2023-01-17T11:58:41.796Z,6.03
2023-01-17T12:01:27.903Z,6.88
2023-01-17T12:03:55.365Z,8.48
2023-01-17T12:06:42.130Z,7.22
2023-01-17T12:09:42.743Z,6.13
2023-01-17T12:12:45.273Z,4.93
2023-01-17T12:15:25.879Z,5.15
2023-01-17T12:18:30.838Z,6.97
2023-01-17T12:21:17.656Z,5.70
2023-01-17T12:24:23.871Z,5.40
2023-01-17T12:27:16.374Z,6.18
2023-01-17T12:29:58.938Z,5.60
2023-01-17T12:32:44.490Z,7.95
2023-01-17T12:35:28.250Z,6.32
2023-01-17T12:38:05.360Z,9.68
2023-01-17T12:40:50.346Z,6.70
2023-01-17T12:43:33.970Z,7.53
2023-01-17T12:46:08.053Z,6.57
2023-01-17T12:48:39.404Z,5.65
2023-01-17T12:51:23.519Z,10.90
2023-01-17T12:54:11.529Z,5.20
2023-01-17T12:56:54.626Z,6.30
2023-01-17T12:59:24.855Z,5.53
2023-01-17T13:02:00.297Z,5.72
2023-01-17T13:04:57.028Z,5.30
2023-01-17T13:07:46.760Z,9.85
2023-01-17T13:10:17.038Z,6.22
2023-01-17T13:12:45.193Z,6.80
2023-01-17T13:15:22.999Z,4.78
2023-01-17T13:17:56.408Z,5.68
2023-01-17T13:20:42.572Z,5.30
2023-01-17T13:23:44.984Z,5.90
2023-01-17T13:26:29.620Z,5.20
2023-01-17T13:29:16.853Z,6.60
2023-01-17T13:31:58.178Z,5.93
2023-01-17T13:34:49.145Z,5.63
2023-01-17T13:37:52.065Z,6.97
2023-01-17T13:40:48.232Z,6.65
2023-01-17T13:43:29.246Z,5.60
2023-01-17T13:46:00.001Z,6.75
2023-01-17T13:48:38.315Z,7.18
2023-01-17T13:51:09.909Z,7.25
2023-01-17T13:53:37.249Z,6.68
2023-01-17T13:56:16.539Z,5.95
2023-01-17T13:58:54.984Z,6.38
2023-01-17T14:01:22.322Z,6.88
2023-01-17T14:03:50.080Z,5.40
2023-01-17T14:06:36.247Z,8.65
2023-01-17T14:09:20.560Z,9.80
2023-01-17T14:12:25.445Z,6.10
2023-01-17T14:14:56.763Z,7.30
2023-01-17T14:17:25.795Z,7.00
2023-01-17T14:20:10.162Z,6.85
2023-01-17T14:22:41.002Z,6.15
2023-01-17T14:25:17.573Z,7.72
2023-01-17T14:27:51.292Z,8.13
2023-01-17T14:30:32.952Z,7.90
2023-01-17T14:33:05.931Z,6.80
2023-01-17T14:35:38.696Z,5.80
2023-01-17T14:38:23.767Z,7.88
2023-01-17T14:40:58.282Z,6.15
2023-01-17T14:43:28.716Z,7.53
2023-01-17T14:46:16.441Z,5.90
2023-01-17T14:48:43.899Z,6.15
2023-01-17T14:51:21.418Z,7.00
2023-01-17T14:53:59.941Z,7.40
2023-01-17T14:56:29.021Z,7.32
2023-01-17T14:59:14.677Z,10.73
2023-01-17T15:02:06.354Z,8.90
2023-01-17T15:07:07.560Z,8.75
2023-01-17T15:09:38.679Z,8.48
2023-01-17T15:12:10.937Z,9.43
2023-01-17T15:14:42.760Z,8.40
2023-01-17T15:17:21.907Z,8.93
2023-01-17T15:20:02.055Z,10.02
2023-01-17T15:22:30.015Z,8.95
2023-01-17T15:24:58.701Z,8.95
2023-01-17T15:27:26.400Z,8.68
2023-01-17T15:29:54.471Z,8.73
2023-01-17T15:32:24.315Z,7.15
2023-01-17T15:34:52.673Z,8.27
2023-01-17T15:37:32.850Z,8.95
2023-01-17T15:40:12.987Z,5.93
2023-01-17T15:42:43.529Z,9.75
2023-01-17T15:45:30.192Z,8.93
2023-01-17T15:47:59.324Z,10.23
2023-01-17T15:50:30.687Z,11.43
2023-01-17T15:53:04.851Z,10.38
2023-01-17T15:55:33.396Z,11.65
2023-01-17T15:58:01.215Z,10.18
2023-01-17T16:00:37.870Z,9.48
2023-01-17T16:03:27.395Z,11.18
2023-01-17T16:05:57.862Z,12.13
2023-01-17T16:08:28.576Z,11.07
2023-01-17T16:11:06.226Z,10.63
2023-01-17T16:13:39.296Z,9.90
2023-01-17T16:16:11.871Z,7.80
2023-01-17T16:18:40.462Z,9.15
2023-01-17T16:21:21.023Z,11.60
2023-01-17T16:23:48.694Z,13.43
2023-01-17T16:26:16.372Z,6.78
2023-01-17T16:28:43.878Z,8.68
2023-01-17T16:31:11.248Z,8.45
2023-01-17T16:33:39.505Z,11.38
2023-01-17T16:36:07.034Z,9.77
2023-01-17T16:38:34.353Z,14.15
2023-01-17T16:41:04.638Z,14.02
2023-01-17T16:43:31.999Z,12.13
2023-01-17T16:45:59.533Z,16.27
2023-01-17T16:48:26.795Z,15.18
2023-01-17T16:50:54.449Z,22.40
2023-01-17T16:53:27.509Z,12.35
2023-01-17T16:56:00.042Z,11.88
2023-01-17T16:58:27.294Z,16.48
2023-01-17T17:00:56.742Z,10.63
2023-01-17T17:03:24.046Z,12.80
2023-01-17T17:05:59.993Z,10.05
2023-01-17T17:08:29.606Z,12.82
2023-01-17T17:11:13.275Z,13.00
2023-01-17T17:13:42.154Z,11.52
2023-01-17T17:16:12.000Z,13.52
2023-01-17T17:18:39.460Z,11.90
2023-01-17T17:21:06.848Z,10.40
2023-01-17T17:23:34.168Z,10.35
2023-01-17T17:26:01.572Z,13.52
2023-01-17T17:28:28.958Z,12.45
2023-01-17T17:31:04.862Z,15.02
2023-01-17T17:33:32.627Z,16.05
2023-01-17T17:36:05.109Z,15.30
2023-01-17T17:38:35.212Z,15.27
2023-01-17T17:41:06.748Z,19.20
2023-01-17T17:43:38.957Z,23.05
2023-01-17T17:46:06.579Z,18.58
2023-01-17T17:48:34.272Z,17.33
2023-01-17T17:51:02.031Z,17.42
2023-01-17T17:53:29.448Z,14.45
2023-01-17T17:56:01.911Z,13.02
2023-01-17T17:58:30.693Z,15.02
2023-01-17T18:01:02.997Z,16.58
2023-01-17T18:03:31.140Z,13.98
2023-01-17T18:06:10.408Z,13.88
2023-01-17T18:08:38.920Z,15.50
2023-01-17T18:11:14.429Z,15.27
2023-01-17T18:13:42.948Z,14.68
2023-01-17T18:16:15.784Z,13.13
2023-01-17T18:18:48.948Z,17.13
2023-01-17T18:21:26.270Z,17.38
2023-01-17T18:23:59.881Z,15.55
2023-01-17T18:26:32.349Z,16.35
2023-01-17T18:29:01.289Z,13.20
2023-01-17T18:31:30.143Z,12.63
2023-01-17T18:34:03.778Z,10.40
2023-01-17T18:36:31.524Z,18.52
2023-01-17T18:38:58.834Z,12.35
2023-01-17T18:41:28.520Z,12.00
2023-01-17T18:43:58.903Z,10.98
2023-01-17T18:46:26.811Z,10.77
2023-01-17T18:48:57.193Z,11.27
2023-01-17T18:51:25.438Z,13.25
2023-01-17T18:53:53.115Z,9.80
2023-01-17T18:56:22.413Z,14.68
2023-01-17T18:58:50.996Z,15.60
2023-01-17T19:01:24.388Z,14.75
2023-01-17T19:03:55.679Z,13.35
2023-01-17T19:06:26.317Z,9.52
2023-01-17T19:08:53.660Z,15.63
2023-01-17T19:11:22.598Z,12.10
2023-01-17T19:13:50.442Z,12.25
2023-01-17T19:16:20.638Z,15.88
2023-01-17T19:18:48.027Z,12.85
2023-01-17T19:21:18.901Z,14.13
2023-01-17T19:23:46.552Z,13.93
2023-01-17T19:26:16.813Z,16.75
2023-01-17T19:28:46.036Z,17.92
2023-01-17T19:31:16.627Z,18.35
2023-01-17T19:33:45.779Z,16.95
2023-01-17T19:36:18.623Z,16.77
2023-01-17T19:39:03.006Z,19.13
2023-01-17T19:41:31.384Z,21.63
2023-01-17T19:44:00.713Z,17.23
2023-01-17T19:46:28.764Z,15.70
2023-01-17T19:48:57.455Z,15.15
2023-01-17T19:51:26.913Z,14.88
2023-01-17T19:53:55.148Z,13.75
2023-01-17T19:56:26.351Z,16.52
2023-01-17T19:58:54.426Z,15.98
2023-01-17T20:01:28.513Z,13.88
2023-01-17T20:03:58.037Z,17.35
2023-01-17T20:06:29.057Z,17.17
2023-01-17T20:08:57.227Z,16.40
2023-01-17T20:11:25.723Z,16.67
2023-01-17T20:13:55.311Z,20.33
2023-01-17T20:16:24.450Z,16.67
2023-01-17T20:18:52.164Z,16.23
2023-01-17T20:21:22.489Z,17.20
2023-01-17T20:23:51.210Z,12.63
2023-01-17T20:26:21.923Z,13.07
2023-01-17T20:28:51.528Z,13.82
2023-01-17T20:31:24.537Z,15.40
2023-01-17T20:33:54.423Z,14.63
2023-01-17T20:36:24.356Z,16.13
2023-01-17T20:38:53.363Z,14.45
2023-01-17T20:41:23.380Z,15.95
2023-01-17T20:43:53.136Z,15.05
2023-01-17T20:46:22.517Z,15.32
2023-01-17T20:48:55.319Z,11.70
2023-01-17T20:51:25.522Z,12.05
2023-01-17T20:53:56.221Z,11.73
2023-01-17T20:56:24.351Z,13.77
2023-01-17T20:58:52.831Z,10.77
2023-01-17T21:01:21.408Z,10.52
2023-01-17T21:03:53.261Z,15.73
2023-01-17T21:06:22.631Z,14.48
2023-01-17T21:08:50.641Z,12.70
2023-01-17T21:11:20.555Z,16.98
2023-01-17T21:13:51.624Z,14.85
2023-01-17T21:16:21.253Z,11.97
2023-01-17T21:18:50.180Z,13.40
2023-01-17T21:21:23.150Z,11.90
2023-01-17T21:23:52.179Z,10.02
2023-01-17T21:26:21.149Z,10.82
2023-01-17T21:28:49.880Z,10.75
2023-01-17T21:31:23.451Z,11.77
2023-01-17T21:34:00.026Z,17.45
2023-01-17T21:36:30.727Z,10.45
2023-01-17T21:38:59.495Z,10.40
2023-01-17T21:41:29.816Z,10.30
2023-01-17T21:43:59.663Z,11.63
2023-01-17T21:46:28.412Z,11.23
2023-01-17T21:48:57.675Z,13.55
2023-01-17T21:51:45.486Z,11.77
2023-01-17T21:54:13.351Z,11.65
2023-01-17T21:56:58.832Z,13.82
2023-01-17T21:59:26.158Z,12.25
2023-01-17T22:01:53.480Z,14.80
2023-01-17T22:04:20.723Z,15.52
2023-01-17T22:06:47.991Z,15.27
2023-01-17T22:09:15.279Z,13.30
2023-01-17T22:11:42.552Z,14.82
2023-01-17T22:14:09.980Z,14.68
2023-01-17T22:16:37.193Z,22.10
2023-01-17T22:19:04.676Z,18.35
2023-01-17T22:21:31.928Z,15.20
2023-01-17T22:23:59.812Z,15.90
2023-01-17T22:26:30.076Z,17.30
2023-01-17T22:29:00.577Z,17.25
2023-01-17T22:31:28.597Z,19.65
2023-01-17T22:34:02.168Z,19.15
2023-01-17T22:36:33.443Z,15.85
2023-01-17T22:39:01.089Z,16.25
2023-01-17T22:41:34.766Z,23.67
2023-01-17T22:44:02.585Z,19.75
2023-01-17T22:46:31.724Z,16.38
2023-01-17T22:49:00.106Z,16.10
2023-01-17T22:51:28.572Z,16.70
2023-01-17T22:53:58.653Z,15.52
2023-01-17T22:56:29.021Z,17.05
2023-01-17T22:58:57.430Z,14.15
2023-01-17T23:01:27.512Z,15.13
2023-01-17T23:03:57.609Z,14.68
2023-01-17T23:06:39.281Z,19.65
2023-01-17T23:09:10.616Z,19.27
2023-01-17T23:11:44.001Z,15.68
2023-01-17T23:14:22.549Z,21.50
2023-01-17T23:17:22.402Z,16.48
2023-01-17T23:19:52.162Z,15.00
2023-01-17T23:22:30.390Z,16.42
2023-01-17T23:25:00.900Z,20.10
2023-01-17T23:27:55.680Z,20.02
2023-01-17T23:30:37.529Z,18.70
2023-01-17T23:33:07.379Z,14.98
2023-01-17T23:35:41.451Z,15.88
2023-01-17T23:38:31.310Z,15.60
2023-01-17T23:41:25.593Z,14.70
2023-01-17T23:43:54.487Z,15.40
2023-01-17T23:46:22.553Z,17.52
2023-01-17T23:48:50.035Z,15.35
2023-01-17T23:51:18.098Z,18.55
2023-01-17T23:53:45.433Z,16.02
2023-01-17T23:56:20.970Z,18.15
2023-01-17T23:58:48.504Z,17.40
